Time;durP1;ratioP1;P1;durP2;ratioP2;P2;SDS_P1;SDS_P2;PMS_P1;PMS_P2;Temp;Humidity;BMP_temperature;BMP_pressure;BME280_temperature;BME280_humidity;BME280_pressure;Samples;Min_cycle;Max_cycle;Signal;HPM_P1;HPM_P2
2024/04/12 00:01:16;;;;;;;11.43;5.68;;;;;;;11.91;81.17;97340.75;7395489;19;20058;-59
2024/04/12 00:03:43;;;;;;;8.57;6.10;;;;;;;12.60;76.64;97336.00;7394724;19;20002;-61
2024/04/12 00:06:17;;;;;;;15.43;6.10;;;;;;;12.41;77.47;97338.38;7395587;19;20007;-56
2024/04/12 00:08:46;;;;;;;12.45;6.50;;;;;;;12.32;78.35;97339.53;7395039;19;20002;-55
2024/04/12 00:11:13;;;;;;;13.95;6.20;;;;;;;12.27;78.06;97337.06;7395013;19;19998;-56
2024/04/12 00:13:42;;;;;;;11.30;5.82;;;;;;;12.61;75.91;97346.44;7393323;19;20005;-57
2024/04/12 00:16:08;;;;;;;9.68;5.88;;;;;;;12.31;77.49;97349.16;7394846;19;20056;-54
2024/04/12 00:18:36;;;;;;;10.93;6.57;;;;;;;12.91;73.79;97342.00;7394605;19;20031;-58
2024/04/12 00:21:04;;;;;;;10.75;5.88;;;;;;;12.65;75.28;97334.09;7394636;19;19995;-54
2024/04/12 00:23:33;;;;;;;11.05;5.95;;;;;;;13.14;71.97;97335.91;7394500;19;20394;-54
2024/04/12 00:26:02;;;;;;;11.95;5.55;;;;;;;13.13;71.84;97321.06;7394951;19;20362;-53
2024/04/12 00:28:32;;;;;;;8.32;5.90;;;;;;;13.32;71.21;97326.50;7398558;19;20002;-56
2024/04/12 00:31:02;;;;;;;10.73;6.28;;;;;;;13.37;71.36;97328.97;7402089;19;20506;-58
2024/04/12 00:33:32;;;;;;;16.20;5.80;;;;;;;13.55;70.27;97330.09;7399541;19;20022;-57
2024/04/12 00:36:11;;;;;;;16.58;5.28;;;;;;;13.99;67.76;97337.19;7401810;19;19999;-54
2024/04/12 00:38:41;;;;;;;11.70;5.65;;;;;;;13.71;68.30;97337.38;7401667;19;20003;-56
2024/04/12 00:41:14;;;;;;;10.13;5.30;;;;;;;13.96;67.62;97339.06;7401950;19;20351;-58
2024/04/12 00:43:47;;;;;;;10.07;5.97;;;;;;;13.42;69.80;97339.31;7401585;19;19995;-53
2024/04/12 00:46:24;;;;;;;11.18;6.10;;;;;;;13.90;67.49;97332.28;7401669;19;19998;-60
2024/04/12 00:48:57;;;;;;;20.65;6.25;;;;;;;14.26;65.62;97337.00;7401879;19;20070;-57
2024/04/12 00:51:27;;;;;;;10.18;5.90;;;;;;;14.38;64.88;97338.28;7401393;19;20355;-60
2024/04/12 00:53:59;;;;;;;12.63;5.60;;;;;;;14.40;64.58;97346.13;7398600;19;19995;-58
2024/04/12 00:56:29;;;;;;;10.05;5.22;;;;;;;13.93;66.53;97332.16;7401549;19;20002;-58
2024/04/12 00:58:55;;;;;;;13.00;5.43;;;;;;;14.24;65.46;97338.00;7401075;19;20070;-55
2024/04/12 01:01:24;;;;;;;10.13;5.50;;;;;;;14.02;65.86;97341.47;7400855;19;20005;-57
2024/04/12 01:03:54;;;;;;;17.35;5.53;;;;;;;14.09;65.81;97342.94;7400251;19;20373;-54
2024/04/12 01:06:24;;;;;;;11.02;5.00;;;;;;;14.37;63.92;97333.09;7400885;19;20018;-54
2024/04/12 01:08:52;;;;;;;6.93;5.50;;;;;;;14.41;63.81;97337.28;7401199;19;20022;-57
2024/04/12 01:11:22;;;;;;;10.18;6.07;;;;;;;14.27;64.65;97327.34;7400707;19;19995;-56
2024/04/12 01:13:54;;;;;;;10.13;6.03;;;;;;;13.78;67.08;97328.34;7398261;19;20003;-60
2024/04/12 01:16:24;;;;;;;10.85;5.88;;;;;;;13.61;68.00;97332.47;7400507;19;20010;-54
2024/04/12 01:18:55;;;;;;;15.07;5.75;;;;;;;13.70;67.60;97333.91;7400383;19;19995;-54
2024/04/12 01:21:23;;;;;;;10.38;5.00;;;;;;;13.58;68.29;97323.88;7400392;19;20011;-56
2024/04/12 01:23:53;;;;;;;8.63;5.47;;;;;;;13.50;69.07;97327.66;7400659;19;20349;-57
2024/04/12 01:26:20;;;;;;;12.47;6.03;;;;;;;14.19;65.42;97335.53;7400335;19;20011;-50
2024/04/12 01:28:48;;;;;;;11.50;5.78;;;;;;;13.93;66.81;97323.44;7400176;19;20067;-58
2024/04/12 01:31:17;;;;;;;10.27;5.25;;;;;;;13.72;67.53;97331.22;7400002;19;20003;-58
2024/04/12 01:33:48;;;;;;;8.85;5.35;;;;;;;13.42;68.80;97318.31;7397659;19;20339;-57
2024/04/12 01:36:21;;;;;;;12.93;5.90;;;;;;;13.80;67.72;97323.03;7400244;19;20007;-56
2024/04/12 01:38:57;;;;;;;13.52;5.88;;;;;;;13.50;68.74;97321.53;7398713;19;20002;-51
2024/04/12 01:41:32;;;;;;;10.68;5.50;;;;;;;13.67;67.90;97327.91;7399794;19;20024;-57
2024/04/12 01:44:06;;;;;;;13.13;5.82;;;;;;;13.68;68.17;97329.63;7399598;19;20076;-53
2024/04/12 01:46:39;;;;;;;10.45;5.32;;;;;;;14.02;66.19;97331.81;7399670;19;20019;-52
2024/04/12 01:49:10;;;;;;;11.88;5.50;;;;;;;13.55;68.76;97327.47;7399701;19;20066;-57
2024/04/12 01:51:36;;;;;;;12.85;6.70;;;;;;;13.71;67.80;97326.88;7399465;19;19997;-58
2024/04/12 01:54:13;;;;;;;10.52;5.78;;;;;;;13.63;68.78;97327.16;7396974;19;19995;-52
2024/04/12 01:56:48;;;;;;;9.85;5.75;;;;;;;13.71;68.12;97334.75;7399248;19;19999;-55
2024/04/12 01:59:15;;;;;;;12.02;6.10;;;;;;;13.83;67.70;97336.06;7399493;19;20011;-59
2024/04/12 02:01:46;;;;;;;11.20;5.90;;;;;;;13.07;71.13;97327.41;7399383;19;20002;-57
2024/04/12 02:04:18;;;;;;;8.95;6.15;;;;;;;13.70;68.27;97333.06;7398528;19;20006;-58
2024/04/12 02:06:44;;;;;;;9.82;5.25;;;;;;;13.28;70.37;97322.28;7398970;19;20010;-62
2024/04/12 02:09:14;;;;;;;11.85;5.75;;;;;;;13.06;71.37;97323.03;7398744;19;19999;-59
2024/04/12 02:11:45;;;;;;;7.20;5.68;;;;;;;13.88;66.66;97326.25;7398763;19;20326;-56
2024/04/12 02:14:12;;;;;;;8.75;5.25;;;;;;;13.62;68.51;97334.22;7398622;19;20009;-61
2024/04/12 02:16:39;;;;;;;6.88;5.40;;;;;;;13.64;67.91;97334.16;7398493;19;20416;-59
2024/04/12 02:19:12;;;;;;;12.63;5.22;;;;;;;14.10;64.71;97336.78;7398374;19;19999;-56
2024/04/12 02:21:39;;;;;;;9.43;5.65;;;;;;;13.92;66.05;97337.47;7398447;19;20105;-57
2024/04/12 02:24:11;;;;;;;9.73;5.35;;;;;;;13.73;67.02;97336.41;7398182;19;20014;-58
2024/04/12 02:26:40;;;;;;;8.27;5.53;;;;;;;14.12;63.95;97334.91;7398622;19;20014;-58
2024/04/12 02:29:06;;;;;;;12.00;6.25;;;;;;;14.19;64.17;97340.81;7398054;19;19995;-58
2024/04/12 02:31:35;;;;;;;9.43;5.18;;;;;;;14.30;63.41;97344.78;7398075;19;20005;-57
2024/04/12 02:34:02;;;;;;;10.90;5.72;;;;;;;14.35;63.25;97348.06;7395802;19;20015;-56
2024/04/12 02:36:30;;;;;;;13.85;5.40;;;;;;;14.06;64.63;97345.69;7398198;19;20011;-58
2024/04/12 02:38:57;;;;;;;9.57;5.35;;;;;;;13.91;64.98;97344.53;7398179;19;20014;-57
2024/04/12 02:41:23;;;;;;;10.52;5.10;;;;;;;13.98;65.03;97337.25;7398157;19;20010;-58
2024/04/12 02:43:52;;;;;;;9.43;5.63;;;;;;;13.38;67.62;97339.44;7397574;19;19999;-56
2024/04/12 02:46:18;;;;;;;6.05;5.05;;;;;;;13.30;68.64;97346.72;7397424;19;20001;-53
2024/04/12 02:48:44;;;;;;;8.30;5.68;;;;;;;13.35;67.77;97343.94;7397351;19;20016;-55
2024/04/12 02:51:14;;;;;;;14.40;6.00;;;;;;;13.32;68.62;97338.78;7395201;19;19991;-57
2024/04/12 02:53:42;;;;;;;9.85;5.60;;;;;;;12.87;71.66;97334.22;7395620;19;19998;-60
2024/04/12 02:56:12;;;;;;;13.70;5.47;;;;;;;12.56;73.18;97344.91;7397217;19;20022;-54
2024/04/12 02:58:45;;;;;;;10.85;5.88;;;;;;;12.44;74.30;97341.78;7397208;19;20468;-57
2024/04/12 03:01:13;;;;;;;10.77;5.75;;;;;;;12.28;75.52;97341.38;7397084;19;20014;-59
2024/04/12 03:03:59;;;;;;;12.23;5.95;;;;;;;12.25;76.12;97344.97;7396492;19;20074;-55
2024/04/12 03:06:27;;;;;;;9.73;5.80;;;;;;;12.03;77.80;97338.66;7397009;19;20015;-59
2024/04/12 03:08:54;;;;;;;15.15;5.40;;;;;;;12.15;77.56;97340.94;7396771;19;19999;-52
2024/04/12 03:13:46;;;;;;;8.85;6.40;;;;;;;12.06;79.16;97349.91;7395051;19;20366;-61
2024/04/12 03:16:15;;;;;;;8.75;5.68;;;;;;;11.64;80.98;97351.16;7396516;19;20029;-59
2024/04/12 03:18:51;;;;;;;11.38;6.10;;;;;;;11.01;86.41;97349.41;7396420;19;20040;-52
2024/04/12 03:21:21;;;;;;;7.20;5.80;;;;;;;11.41;84.21;97349.22;7396403;19;20376;-56
2024/04/12 03:23:48;;;;;;;12.13;6.25;;;;;;;11.05;86.27;97348.44;7396759;19;20003;-57
2024/04/12 03:26:15;;;;;;;8.75;6.32;;;;;;;11.11;86.50;97355.28;7396226;19;20366;-60
2024/04/12 03:28:41;;;;;;;10.18;6.90;;;;;;;10.98;87.48;97339.91;7396129;19;20007;-56
2024/04/12 03:31:08;;;;;;;15.98;6.80;;;;;;;11.02;88.06;97343.31;7396047;19;19994;-57
2024/04/12 03:33:42;;;;;;;9.93;7.03;;;;;;;10.96;89.11;97348.69;7394520;19;20587;-57
2024/04/12 03:41:46;;;;;;;15.27;7.75;;;;;;;11.00;88.33;97358.19;7396294;19;20378;-56
2024/04/12 03:44:18;;;;;;;13.02;6.65;;;;;;;11.32;86.75;97355.59;7395601;19;20487;-54
2024/04/12 03:46:47;;;;;;;10.05;6.63;;;;;;;11.28;86.64;97353.94;7396080;19;20373;-61
2024/04/12 03:49:20;;;;;;;12.60;6.82;;;;;;;11.44;86.11;97349.16;7395429;19;20468;-56
2024/04/12 03:51:50;;;;;;;9.50;6.68;;;;;;;11.40;86.62;97360.59;7395370;19;19998;-56
2024/04/12 03:54:20;;;;;;;8.40;6.93;;;;;;;11.92;83.53;97367.84;7395405;19;20035;-60
2024/04/12 03:56:50;;;;;;;12.77;6.93;;;;;;;11.71;84.48;97367.59;7395683;19;20570;-56
2024/04/12 03:59:20;;;;;;;11.10;7.13;;;;;;;11.84;83.64;97368.06;7395096;19;20010;-60
2024/04/12 04:01:47;;;;;;;14.27;7.85;;;;;;;11.90;83.79;97370.50;7394698;19;19998;-56
2024/04/12 04:04:17;;;;;;;15.52;7.28;;;;;;;12.05;82.60;97377.06;7394356;19;20003;-59
2024/04/12 04:06:48;;;;;;;15.65;7.53;;;;;;;12.37;79.60;97372.59;7395027;19;20017;-55
2024/04/12 04:09:19;;;;;;;12.20;6.43;;;;;;;12.49;78.75;97373.09;7394829;19;20372;-61
2024/04/12 04:11:46;;;;;;;18.05;7.28;;;;;;;12.51;78.54;97371.28;7394856;19;20028;-55
2024/04/12 04:14:13;;;;;;;10.68;6.60;;;;;;;12.60;78.09;97376.25;7394756;19;20023;-57
2024/04/12 04:16:42;;;;;;;16.20;6.88;;;;;;;12.76;77.49;97376.59;7394774;19;20006;-53
2024/04/12 04:19:12;;;;;;;10.18;6.57;;;;;;;13.47;73.09;97382.91;7395161;19;20457;-53
2024/04/12 04:21:41;;;;;;;12.68;6.68;;;;;;;13.91;70.09;97389.25;7395028;19;20018;-59
2024/04/12 04:24:10;;;;;;;11.40;6.88;;;;;;;14.14;69.30;97387.47;7394577;19;19998;-58
2024/04/12 04:26:40;;;;;;;15.52;6.38;;;;;;;14.51;68.06;97393.91;7394593;19;20457;-58
2024/04/12 04:29:10;;;;;;;15.10;6.07;;;;;;;14.89;66.16;97395.94;7394475;19;20006;-59
2024/04/12 04:31:47;;;;;;;10.00;6.00;;;;;;;15.38;64.33;97401.81;7394537;19;20489;-56
2024/04/12 04:34:14;;;;;;;8.52;5.65;;;;;;;15.82;62.75;97406.00;7394193;19;20424;-56
2024/04/12 04:36:40;;;;;;;13.52;6.40;;;;;;;16.10;61.03;97411.84;7394247;19;20167;-59
2024/04/12 04:39:06;;;;;;;10.18;6.10;;;;;;;16.20;61.03;97412.25;7394518;19;20049;-56
2024/04/12 04:41:33;;;;;;;11.77;5.68;;;;;;;16.57;58.44;97414.91;7393991;19;20469;-59
2024/04/12 04:44:02;;;;;;;19.10;6.25;;;;;;;17.18;56.56;97418.09;7393935;19;20496;-57
2024/04/12 04:46:27;;;;;;;16.38;5.90;;;;;;;16.64;58.62;97419.81;7394301;19;19999;-59
2024/04/12 04:48:56;;;;;;;10.63;5.40;;;;;;;17.13;55.98;97412.19;7394186;19;20457;-54
2024/04/12 04:51:25;;;;;;;9.73;6.03;;;;;;;17.97;54.22;97420.22;7394218;19;19995;-59
2024/04/12 04:53:52;;;;;;;11.63;5.38;;;;;;;17.88;54.08;97419.75;7391842;19;20058;-61
2024/04/12 04:56:30;;;;;;;11.98;5.57;;;;;;;18.56;50.33;97419.66;7394102;19;19995;-60
2024/04/12 04:58:56;;;;;;;11.73;5.18;;;;;;;19.68;49.50;97429.09;7394155;19;20041;-56
2024/04/12 05:01:25;;;;;;;10.43;6.00;;;;;;;19.48;48.93;97418.84;7393641;19;19999;-56
2024/04/12 05:03:52;;;;;;;11.43;5.05;;;;;;;20.13;48.49;97424.63;7393018;19;19998;-56
2024/04/12 05:06:27;;;;;;;10.60;5.85;;;;;;;19.65;49.38;97418.66;7393559;19;20013;-57
2024/04/12 05:09:00;;;;;;;10.93;4.72;;;;;;;19.72;48.26;97426.25;7393643;19;19999;-52
2024/04/12 05:11:29;;;;;;;9.90;5.18;;;;;;;19.60;48.93;97419.88;7393434;19;20469;-58
2024/04/12 05:14:05;;;;;;;13.45;5.35;;;;;;;20.11;47.77;97429.22;7393472;19;20006;-57
2024/04/12 05:16:32;;;;;;;9.68;4.70;;;;;;;21.03;45.91;97432.19;7400644;19;20340;-60
2024/04/12 05:19:07;;;;;;;9.18;4.60;;;;;;;21.44;45.63;97429.50;7400902;19;20066;-53
2024/04/12 05:21:44;;;;;;;13.40;5.10;;;;;;;21.68;43.11;97432.28;7400440;19;20058;-54
2024/04/12 05:24:11;;;;;;;13.23;4.88;;;;;;;23.77;40.76;97440.31;7400448;19;20009;-61
2024/04/12 05:26:41;;;;;;;7.65;4.57;;;;;;;23.18;40.00;97439.44;7400211;19;19998;-57
2024/04/12 05:29:10;;;;;;;7.25;5.22;;;;;;;23.54;39.17;97432.28;7400197;19;20464;-60
2024/04/12 05:31:36;;;;;;;12.15;5.82;;;;;;;22.77;41.15;97430.91;7400050;19;20009;-53
2024/04/12 05:34:04;;;;;;;9.35;5.15;;;;;;;24.81;37.01;97441.09;7397505;19;20005;-55
2024/04/12 05:36:33;;;;;;;5.75;4.65;;;;;;;25.23;35.89;97440.34;7399886;19;20003;-59
2024/04/12 05:39:08;;;;;;;6.90;4.70;;;;;;;25.33;37.14;97443.94;7399767;19;20453;-62
2024/04/12 05:41:37;;;;;;;8.52;4.80;;;;;;;25.02;36.53;97443.84;7399788;19;20002;-60
2024/04/12 05:44:06;;;;;;;10.32;4.38;;;;;;;24.94;36.31;97446.31;7399565;19;20002;-54
2024/04/12 05:46:38;;;;;;;7.95;4.55;;;;;;;25.44;34.21;97445.72;7399502;19;20015;-55
2024/04/12 05:49:09;;;;;;;16.70;5.30;;;;;;;25.29;35.16;97444.34;7399473;19;19998;-56
2024/04/12 05:51:41;;;;;;;13.00;4.82;;;;;;;27.19;33.48;97446.63;7399921;19;20433;-57
2024/04/12 05:54:16;;;;;;;14.55;5.95;;;;;;;23.67;36.44;97442.88;7396837;19;20457;-56
2024/04/12 05:56:46;;;;;;;11.35;5.13;;;;;;;24.13;36.26;97450.03;7399662;19;20348;-57
2024/04/12 05:59:16;;;;;;;8.07;5.18;;;;;;;23.26;37.19;97438.88;7399151;19;20339;-57
2024/04/12 06:01:46;;;;;;;14.60;5.78;;;;;;;24.76;36.18;97448.63;7399099;19;20002;-53
2024/04/12 06:04:19;;;;;;;7.80;4.70;;;;;;;23.83;37.48;97449.66;7398251;19;20341;-55
2024/04/12 06:06:49;;;;;;;10.57;5.20;;;;;;;23.67;37.65;97444.69;7398987;19;20002;-57
2024/04/12 06:09:20;;;;;;;12.48;5.45;;;;;;;22.80;40.00;97436.00;7398915;19;20014;-55
2024/04/12 06:11:54;;;;;;;11.20;4.90;;;;;;;22.15;41.32;97433.53;7398874;19;20457;-56
2024/04/12 06:14:21;;;;;;;22.13;4.78;;;;;;;22.72;43.59;97428.56;7398793;19;20003;-57
2024/04/12 06:16:57;;;;;;;11.75;5.38;;;;;;;22.44;41.25;97439.44;7398597;19;20357;-60
2024/04/12 06:19:26;;;;;;;8.95;4.90;;;;;;;22.01;40.77;97437.16;7398560;19;20545;-54
2024/04/12 06:21:52;;;;;;;12.13;4.75;;;;;;;23.00;39.93;97433.69;7398500;19;20087;-57
2024/04/12 06:24:29;;;;;;;12.40;5.00;;;;;;;23.01;39.84;97438.03;7398301;19;20355;-57
2024/04/12 06:26:58;;;;;;;9.95;4.38;;;;;;;22.29;41.03;97435.19;7398303;19;20032;-58
2024/04/12 06:29:26;;;;;;;7.72;5.07;;;;;;;21.96;41.48;97441.03;7398100;19;20002;-56
2024/04/12 06:31:56;;;;;;;11.73;5.00;;;;;;;21.49;42.96;97430.00;7397936;19;20005;-56
2024/04/12 06:34:22;;;;;;;10.40;4.78;;;;;;;22.56;39.86;97439.50;7398131;19;20003;-62
2024/04/12 06:36:56;;;;;;;10.65;4.90;;;;;;;22.06;41.91;97437.69;7398412;19;20013;-56
2024/04/12 06:39:27;;;;;;;8.20;4.60;;;;;;;22.05;41.51;97431.53;7398479;19;20006;-51
2024/04/12 06:41:57;;;;;;;9.45;4.82;;;;;;;23.05;41.40;97442.16;7397810;19;20002;-51
2024/04/12 06:44:25;;;;;;;13.00;4.85;;;;;;;23.34;38.24;97448.00;7397728;19;19998;-53
2024/04/12 06:46:52;;;;;;;8.50;4.32;;;;;;;21.41;42.39;97440.34;7397723;19;20006;-57
2024/04/12 06:49:26;;;;;;;9.75;4.63;;;;;;;23.63;41.00;97437.88;7397943;19;20013;-52
2024/04/12 06:52:10;;;;;;;6.25;4.45;;;;;;;24.14;39.19;97438.44;7398050;19;20070;-57
2024/04/12 06:54:40;;;;;;;8.18;4.47;;;;;;;24.36;37.73;97448.25;7397779;19;20340;-51
2024/04/12 06:57:06;;;;;;;;;;;;;;;24.28;38.38;97448.00;7397874;19;20036;-60
2024/04/12 06:59:35;;;;;;;13.02;5.00;;;;;;;23.58;38.20;97448.91;7397486;19;19915;-58
2024/04/12 07:02:05;;;;;;;9.60;4.93;;;;;;;23.06;38.90;97436.72;7397419;19;20326;-60
2024/04/12 07:04:31;;;;;;;9.27;4.32;;;;;;;22.73;38.91;97446.28;7396484;19;20018;-59
2024/04/12 07:06:57;;;;;;;7.93;4.25;;;;;;;23.58;39.12;97439.09;7396857;19;20034;-58
2024/04/12 07:09:23;;;;;;;9.55;4.82;;;;;;;23.65;39.63;97435.94;7396861;19;20006;-56
2024/04/12 07:11:51;;;;;;;7.93;4.45;;;;;;;23.70;38.56;97445.31;7396782;19;19999;-57
2024/04/12 07:14:23;;;;;;;7.63;4.65;;;;;;;22.65;38.35;97438.84;7396694;19;20006;-55
2024/04/12 07:16:53;;;;;;;6.65;4.38;;;;;;;24.01;36.36;97444.69;7397115;19;20015;-58
2024/04/12 07:19:23;;;;;;;7.65;3.72;;;;;;;24.39;36.03;97450.69;7396575;19;19994;-57
2024/04/12 07:21:54;;;;;;;9.77;4.13;;;;;;;24.38;36.57;97442.78;7396978;19;20009;-58
2024/04/12 07:24:23;;;;;;;6.90;4.07;;;;;;;24.81;35.58;97451.78;7396876;19;20070;-57
2024/04/12 07:26:49;;;;;;;10.05;4.25;;;;;;;24.19;36.58;97444.25;7396292;19;20003;-59
2024/04/12 07:29:15;;;;;;;12.07;3.83;;;;;;;24.98;36.30;97448.59;7396098;19;20071;-57
2024/04/12 07:31:42;;;;;;;9.10;4.45;;;;;;;24.16;38.00;97442.66;7396070;19;20002;-57
2024/04/12 07:34:08;;;;;;;12.85;3.95;;;;;;;24.69;34.77;97450.97;7394291;19;19999;-56
2024/04/12 07:36:35;;;;;;;9.68;4.28;;;;;;;23.63;36.43;97437.88;7394903;19;20118;-59
2024/04/12 07:39:02;;;;;;;17.90;3.83;;;;;;;24.02;36.83;97443.72;7395921;19;20369;-59
2024/04/12 07:41:33;;;;;;;7.68;4.18;;;;;;;24.01;36.04;97449.19;7395870;19;20002;-57
2024/04/12 07:43:59;;;;;;;;;;;;;;;24.39;35.61;97441.78;7396423;19;20019;-60
2024/04/12 07:46:33;;;;;;;13.68;3.90;;;;;;;24.01;35.89;97431.34;7395740;19;19914;-56
2024/04/12 07:49:07;;;;;;;6.22;3.88;;;;;;;24.40;37.70;97438.13;7395713;19;19997;-60
2024/04/12 07:51:39;;;;;;;6.60;4.07;;;;;;;23.60;36.25;97434.47;7396090;19;20002;-57
2024/04/12 07:54:11;;;;;;;8.43;4.20;;;;;;;24.77;36.05;97435.13;7393850;19;20453;-58
2024/04/12 07:56:43;;;;;;;13.73;4.25;;;;;;;23.85;35.44;97440.59;7395837;19;20002;-58
2024/04/12 07:59:27;;;;;;;10.73;3.80;;;;;;;23.88;36.46;97441.31;7395378;19;20010;-61
2024/04/12 08:01:53;;;;;;;5.45;4.18;;;;;;;23.84;34.63;97435.38;7395317;19;20009;-57
2024/04/12 08:04:26;;;;;;;8.70;4.28;;;;;;;23.88;35.58;97428.81;7394603;19;20010;-58
2024/04/12 08:06:55;;;;;;;8.60;4.43;;;;;;;22.85;37.13;97432.03;7395194;19;20007;-59
2024/04/12 08:09:44;;;;;;;9.82;4.57;;;;;;;23.91;34.46;97443.72;7395098;19;20023;-56
2024/04/12 08:12:14;;;;;;;6.93;4.00;;;;;;;23.37;36.99;97438.06;7394704;19;20017;-54
2024/04/12 08:14:53;;;;;;;10.65;4.55;;;;;;;23.94;37.18;97431.00;7394911;19;19994;-56
2024/04/12 08:17:27;;;;;;;14.35;4.93;;;;;;;23.95;36.09;97421.16;7395217;19;20347;-57
2024/04/12 08:19:55;;;;;;;7.03;4.65;;;;;;;22.47;37.96;97428.53;7394677;19;20013;-60
2024/04/12 08:22:25;;;;;;;4.93;3.90;;;;;;;22.75;38.10;97416.84;7394555;19;20004;-56
2024/04/12 08:24:52;;;;;;;14.45;4.38;;;;;;;24.10;36.18;97422.59;7394619;19;20013;-55
2024/04/12 08:27:27;;;;;;;13.63;4.35;;;;;;;24.27;36.57;97431.13;7394952;19;20021;-56
2024/04/12 08:29:57;;;;;;;9.05;4.32;;;;;;;23.98;35.56;97424.44;7394512;19;20009;-54
2024/04/12 08:32:31;;;;;;;9.32;4.13;;;;;;;25.07;34.58;97427.41;7393888;19;19991;-58
2024/04/12 08:35:06;;;;;;;10.95;4.13;;;;;;;24.79;33.80;97419.81;7394358;19;19995;-56
2024/04/12 08:37:36;;;;;;;6.82;4.35;;;;;;;24.69;33.27;97425.09;7394479;19;19995;-59
2024/04/12 08:40:08;;;;;;;;;;;;;;;24.51;33.86;97413.22;7395049;19;20011;-52
2024/04/12 08:42:35;;;;;;;8.65;4.32;;;;;;;24.90;34.15;97415.44;7394379;19;19910;-56
2024/04/12 08:45:26;;;;;;;9.10;4.07;;;;;;;24.35;35.18;97423.31;7394333;19;20001;-58
2024/04/12 08:47:54;;;;;;;12.90;4.00;;;;;;;24.02;35.12;97422.34;7393790;19;20010;-56
2024/04/12 08:50:31;;;;;;;7.35;4.03;;;;;;;23.31;36.02;97416.19;7401306;19;20381;-56
2024/04/12 08:52:58;;;;;;;7.05;3.83;;;;;;;22.86;36.81;97414.22;7400537;19;20021;-56
2024/04/12 08:55:24;;;;;;;9.88;4.30;;;;;;;24.02;34.91;97416.19;7401304;19;20445;-55
2024/04/12 08:58:00;;;;;;;12.98;4.57;;;;;;;23.56;33.92;97417.00;7401219;19;19994;-58
2024/04/12 09:00:34;;;;;;;17.15;8.98;;;;;;;24.57;32.43;97415.38;7401204;19;19999;-56
2024/04/12 09:03:10;;;;;;;16.67;11.48;;;;;;;24.69;32.83;97416.22;7401164;19;19995;-58
2024/04/12 09:05:38;;;;;;;8.65;4.30;;;;;;;24.71;33.37;97420.44;7398667;19;20010;-59
2024/04/12 09:08:05;;;;;;;8.75;4.10;;;;;;;25.26;32.71;97416.00;7400913;19;19994;-59
2024/04/12 09:10:35;;;;;;;11.68;4.38;;;;;;;24.70;32.20;97420.56;7400764;19;20017;-56
2024/04/12 09:13:14;;;;;;;8.38;4.00;;;;;;;24.76;34.31;97413.88;7399879;19;20123;-58
2024/04/12 09:15:43;;;;;;;8.05;3.65;;;;;;;24.80;32.04;97400.09;7400676;19;20006;-55
2024/04/12 09:18:13;;;;;;;15.80;4.30;;;;;;;24.82;34.08;97391.97;7401044;19;20006;-58
2024/04/12 09:20:40;;;;;;;13.25;4.38;;;;;;;23.73;33.15;97401.47;7400570;19;20023;-61
2024/04/12 09:23:19;;;;;;;8.50;3.90;;;;;;;23.28;32.85;97410.22;7398914;19;20011;-57
2024/04/12 09:25:54;;;;;;;13.23;3.88;;;;;;;23.38;34.19;97387.22;7400296;19;20009;-58
2024/04/12 09:28:26;;;;;;;13.57;4.03;;;;;;;23.61;32.64;97381.94;7400615;19;20462;-53
2024/04/12 09:33:39;;;;;;;7.15;3.53;;;;;;;23.43;35.77;97381.53;7398855;19;20031;-56
2024/04/12 09:36:13;;;;;;;9.25;4.20;;;;;;;22.88;34.82;97382.97;7399955;19;20027;-54
2024/04/12 09:38:42;;;;;;;7.03;4.20;;;;;;;22.71;35.15;97371.75;7400009;19;19999;-56
2024/04/12 09:41:28;;;;;;;14.40;4.45;;;;;;;23.48;33.59;97376.72;7399838;19;19995;-56
2024/04/12 09:44:00;;;;;;;7.95;4.15;;;;;;;24.37;33.20;97377.75;7398280;19;20450;-54
2024/04/12 10:37:22;;;;;;;11.63;4.28;;;;;;;23.37;36.48;97379.34;7399647;19;20394;-60
2024/04/12 10:39:49;;;;;;;7.32;3.88;;;;;;;24.43;32.81;97347.84;7397992;19;20011;-56
2024/04/12 10:42:19;;;;;;;9.15;4.30;;;;;;;24.38;34.03;97362.59;7397889;19;20016;-60
2024/04/12 10:44:50;;;;;;;7.22;3.97;;;;;;;24.44;31.77;97360.25;7397760;19;19998;-52
2024/04/12 10:47:20;;;;;;;6.47;4.18;;;;;;;24.44;33.98;97351.41;7397745;19;20002;-56
2024/04/12 10:49:46;;;;;;;8.30;3.95;;;;;;;24.46;31.32;97344.06;7398190;19;20069;-57
2024/04/12 10:52:14;;;;;;;8.95;4.28;;;;;;;24.47;32.29;97354.66;7397118;19;20461;-59
2024/04/12 10:54:44;;;;;;;4.90;3.95;;;;;;;24.32;33.09;97353.25;7397305;19;20005;-57
2024/04/12 10:57:13;;;;;;;12.65;7.68;;;;;;;24.67;30.98;97341.44;7397325;19;20001;-56
2024/04/12 10:59:42;;;;;;;11.50;4.75;;;;;;;25.38;32.15;97338.28;7395806;19;20010;-59
2024/04/12 11:02:10;;;;;;;14.98;7.47;;;;;;;24.73;31.02;97340.09;7397398;19;20006;-55
2024/04/12 11:07:24;;;;;;;6.47;3.72;;;;;;;25.10;30.98;97344.16;7397360;19;20028;-56
2024/04/12 11:10:03;;;;;;;14.00;3.67;;;;;;;24.83;32.08;97345.53;7396929;19;20011;-57
2024/04/12 11:12:40;;;;;;;6.35;4.15;;;;;;;24.67;31.20;97328.06;7394346;19;20450;-58
2024/04/12 11:31:57;;;;;;;4.47;3.47;;;;;;;24.46;31.27;97320.00;7396682;19;20345;-56
2024/04/12 11:34:24;;;;;;;8.07;4.20;;;;;;;25.14;30.82;97321.53;7394753;19;20009;-54
2024/04/12 11:37:05;;;;;;;8.98;3.55;;;;;;;24.51;30.79;97312.47;7396283;19;20010;-53
2024/04/12 11:39:35;;;;;;;14.00;3.42;;;;;;;24.84;30.42;97305.25;7396420;19;20019;-55
2024/04/12 11:42:03;;;;;;;6.82;3.90;;;;;;;24.57;31.02;97309.28;7396246;19;20006;-53
2024/04/12 11:44:30;;;;;;;7.15;3.58;;;;;;;23.68;30.90;97310.19;7395689;19;19999;-57
2024/04/12 11:47:02;;;;;;;12.68;4.47;;;;;;;23.02;32.04;97296.53;7395566;19;20464;-60
2024/04/12 11:49:27;;;;;;;8.85;3.85;;;;;;;23.32;31.90;97299.59;7395625;19;20367;-53
2024/04/12 11:51:56;;;;;;;8.25;4.20;;;;;;;24.46;30.95;97304.84;7395586;19;20006;-55
2024/04/12 11:54:31;;;;;;;8.55;3.63;;;;;;;23.49;31.14;97309.00;7393880;19;20009;-55
2024/04/12 11:57:05;;;;;;;5.65;3.50;;;;;;;24.35;29.54;97304.88;7395310;19;20002;-53
2024/04/12 11:59:31;;;;;;;7.88;3.80;;;;;;;24.75;31.64;97303.38;7395293;19;20012;-56
2024/04/12 12:02:00;;;;;;;7.18;3.75;;;;;;;24.32;30.83;97297.94;7395168;19;20062;-58
2024/04/12 12:04:28;;;;;;;11.57;4.63;;;;;;;24.14;30.28;97300.31;7394430;19;20489;-59
2024/04/12 12:06:59;;;;;;;9.32;3.72;;;;;;;24.64;30.91;97284.69;7395541;19;20014;-52
2024/04/12 12:09:31;;;;;;;9.77;3.80;;;;;;;24.44;30.01;97296.09;7395101;19;19999;-50
2024/04/12 12:11:57;;;;;;;7.57;3.70;;;;;;;24.07;30.32;97288.41;7395612;19;20002;-56
2024/04/12 12:14:25;;;;;;;5.28;3.50;;;;;;;23.87;30.33;97296.19;7393571;19;20019;-49
2024/04/12 12:16:51;;;;;;;5.38;3.40;;;;;;;24.01;29.67;97297.75;7394919;19;20019;-60
2024/04/12 12:19:18;;;;;;;7.32;3.95;;;;;;;24.32;30.73;97278.41;7395051;19;20402;-54
2024/04/12 12:21:45;;;;;;;8.05;3.92;;;;;;;24.20;30.76;97280.28;7394692;19;20002;-53
2024/04/12 12:24:12;;;;;;;8.93;3.95;;;;;;;24.21;30.67;97289.97;7401131;19;19998;-53
2024/04/12 12:26:39;;;;;;;5.28;3.63;;;;;;;24.22;30.76;97289.84;7402332;19;19995;-58
2024/04/12 12:29:06;;;;;;;5.65;4.05;;;;;;;23.98;30.39;97277.50;7402192;19;19994;-56
2024/04/12 12:31:32;;;;;;;10.38;3.65;;;;;;;24.36;30.46;97278.00;7402470;19;20020;-56
2024/04/12 12:33:58;;;;;;;5.50;3.50;;;;;;;24.61;31.55;97277.78;7400072;19;20014;-60
2024/04/12 12:36:25;;;;;;;8.73;4.32;;;;;;;23.98;29.29;97276.63;7402362;19;20461;-55
2024/04/12 12:38:51;;;;;;;5.30;3.50;;;;;;;24.04;29.66;97269.94;7401846;19;19999;-53
2024/04/12 12:41:17;;;;;;;9.25;3.45;;;;;;;23.98;31.03;97257.94;7401870;19;19995;-51
2024/04/12 12:43:44;;;;;;;7.57;4.50;;;;;;;24.20;31.24;97269.59;7401702;19;20406;-54
2024/04/12 12:46:16;;;;;;;6.32;4.18;;;;;;;23.74;30.72;97261.63;7400226;19;19999;-56
2024/04/12 12:48:42;;;;;;;6.75;3.72;;;;;;;23.59;30.28;97277.06;7400506;19;20350;-60
2024/04/12 12:51:09;;;;;;;9.45;3.92;;;;;;;24.20;30.50;97253.56;7401492;19;19995;-58
2024/04/12 12:53:37;;;;;;;10.73;4.13;;;;;;;24.91;31.10;97254.78;7399414;19;20003;-57
2024/04/12 12:56:09;;;;;;;10.98;4.00;;;;;;;24.40;30.51;97254.53;7401369;19;19999;-56
2024/04/12 12:58:37;;;;;;;10.80;3.63;;;;;;;23.73;31.66;97243.94;7401135;19;19999;-52
2024/04/12 13:01:07;;;;;;;7.72;3.78;;;;;;;23.99;31.44;97238.28;7401157;19;20476;-58
2024/04/12 13:03:35;;;;;;;11.80;4.05;;;;;;;24.03;31.30;97238.88;7401652;19;20006;-57